Flight Track Log - Related Links

Times and Time Zones

All times are in EDT time to prevent confusion due to time zone crossing. See the SWA489 flight status page for this flight to view local times or setup timezone preferences in your user account.

Time Position Orientation Groundspeed Altitude Reporting Facility
EDT Latitude Longitude Course Direction KTS MPH feet Rate Location/Type
Tue 09:24:42 AM 27.9167 -82.5667 196° South 200 230 2,900  Level Tampa TRACON
Tue 09:25:36 AM 27.9000 -82.6000 241° Southwest 212 244 5,600 2,585 Climbing Tampa TRACON
Tue 09:27:50 AM 28.0411 -82.6503 343° North 244 281 11,000 2,722 Climbing Jacksonville Center
Tue 09:28:50 AM 28.1353 -82.6808 344° North 288 331 14,400 3,400 Climbing Jacksonville Center
Tue 09:29:00 AM 28.4902 -82.7833 North  Level FlightAware Approximate
Tue 09:29:50 AM 28.2292 -82.7089 345° North 325 374 17,800  Level Jacksonville Center
Tue 09:30:50 AM 28.3272 -82.7369 346° North 347 399 21,000 2,950 Climbing Jacksonville Center
Tue 09:31:50 AM 28.4336 -82.7697 345° North 368 423 23,700 2,650 Climbing Jacksonville Center
Tue 09:32:50 AM 28.5422 -82.8028 345° North 389 448 26,300 2,500 Climbing Jacksonville Center
Tue 09:33:50 AM 28.6592 -82.8311 348° North 402 463 28,700 2,150 Climbing Jacksonville Center
Tue 09:34:50 AM 28.7592 -82.8878 334° Northwest 408 470 30,600 2,050 Climbing Jacksonville Center
Tue 09:35:50 AM 28.8636 -82.9567 330° Northwest 414 476 32,800 2,050 Climbing Jacksonville Center
Tue 09:36:50 AM 28.9617 -83.0256 328° Northwest 419 482 34,700 1,750 Climbing Jacksonville Center
Tue 09:37:50 AM 29.0639 -83.0922 330° Northwest 424 488 36,300 1,500 Climbing Jacksonville Center
Tue 09:38:50 AM 29.1661 -83.1614 329° Northwest 424 488 37,700 850 Climbing Jacksonville Center
Tue 09:39:50 AM 29.2703 -83.2283 331° Northwest 424 488 38,000 750 Climbing Jacksonville Center
Tue 09:40:50 AM 29.3722 -83.2953 330° Northwest 424 488 39,200 1,000 Climbing Jacksonville Center
Tue 09:41:50 AM 29.4722 -83.3625 330° Northwest 424 488 40,000 400 Climbing Jacksonville Center
Tue 09:42:50 AM 29.5744 -83.4322 329° Northwest 424 488 40,000  Level Jacksonville Center
Tue 09:43:50 AM 29.6700 -83.5069 326° Northwest 424 488 40,000  Level Jacksonville Center
Tue 09:44:50 AM 29.7678 -83.5864 325° Northwest 424 488 40,000  Level Jacksonville Center
Tue 09:45:50 AM 29.8633 -83.6614 326° Northwest 424 488 40,000  Level Jacksonville Center
Tue 09:46:50 AM 29.9672 -83.7436 326° Northwest 419 482 40,000  Level Jacksonville Center
Tue 09:47:50 AM 30.0628 -83.8214 325° Northwest 419 482 40,000  Level Jacksonville Center
Tue 09:48:50 AM 30.1581 -83.8967 326° Northwest 419 482 40,000  Level Jacksonville Center
Tue 09:49:50 AM 30.2514 -83.9697 326° Northwest 419 482 40,000  Level Jacksonville Center
Tue 09:50:50 AM 30.3469 -84.0456 326° Northwest 419 482 40,000  Level Jacksonville Center
Tue 09:51:50 AM 30.4403 -84.1214 325° Northwest 419 482 40,000  Level Jacksonville Center
Tue 09:52:50 AM 30.5333 -84.1972 325° Northwest 419 482 40,000  Level Jacksonville Center
Tue 09:53:50 AM 30.6222 -84.2711 324° Northwest 409 471 40,000  Level Jacksonville Center
Tue 09:54:50 AM 30.7156 -84.3497 324° Northwest 409 471 40,000  Level Jacksonville Center
Tue 09:55:50 AM 30.8106 -84.4261 325° Northwest 409 471 40,000 -400 Level Jacksonville Center
Tue 09:56:50 AM 30.9014 -84.5003 325° Northwest 404 465 39,200 -1,150 Descending Jacksonville Center
Tue 09:57:50 AM 30.9944 -84.5744 326° Northwest 404 465 37,700 -1,450 Descending Jacksonville Center
Tue 09:58:50 AM 31.0894 -84.6539 324° Northwest 404 465 36,300 -1,342 Descending Jacksonville Center
Tue 10:00:22 AM 31.2167 -84.7575 325° Northwest 403 464 34,300 -908 Descending Atlanta Center
Tue 10:01:22 AM 31.3058 -84.8311 325° Northwest 403 464 34,000 -150 Descending Atlanta Center
Tue 10:02:22 AM 31.3950 -84.9050 325° Northwest 398 458 34,000  Level Atlanta Center
Tue 10:03:22 AM 31.4758 -84.9739 324° Northwest 386 444 34,000  Level Atlanta Center
Tue 10:04:22 AM 31.5650 -85.0456 326° Northwest 386 444 34,000  Level Atlanta Center
Tue 10:05:22 AM 31.6458 -85.1172 323° Northwest 376 433 34,000  Level Atlanta Center
Tue 10:06:22 AM 31.7331 -85.1817 328° Northwest 376 433 34,000  Level Atlanta Center
Tue 10:07:22 AM 31.8158 -85.2561 323° Northwest 376 433 34,000  Level Atlanta Center
Tue 10:08:22 AM 31.9028 -85.3233 327° Northwest 381 438 34,000 -350 Level Atlanta Center
Tue 10:09:22 AM 31.9875 -85.3956 324° Northwest 381 438 33,300 -800 Descending Atlanta Center
Tue 10:10:22 AM 32.0722 -85.4703 323° Northwest 381 438 32,400 -1,050 Descending Atlanta Center
Tue 10:11:22 AM 32.1592 -85.5378 327° Northwest 376 433 31,200 -2,000 Descending Atlanta Center
Tue 10:12:22 AM 32.2458 -85.6131 324° Northwest 371 427 28,400 -2,500 Descending Atlanta Center
Tue 10:13:22 AM 32.3244 -85.6783 325° Northwest 359 413 26,200 -2,150 Descending Atlanta Center
Tue 10:14:22 AM 32.4006 -85.7436 324° Northwest 348 400 24,100 -1,900 Descending Atlanta Center
Tue 10:15:22 AM 32.4644 -85.8039 321° Northwest 336 387 22,400 -1,900 Descending Atlanta Center
Tue 10:16:22 AM 32.5431 -85.8672 326° Northwest 323 372 20,300 -1,200 Descending Atlanta Center
Tue 10:17:22 AM 32.6111 -85.9228 325° Northwest 310 357 20,000 -150 Descending Atlanta Center
Tue 10:18:22 AM 32.6872 -85.9861 325° Northwest 316 364 20,000  Level Atlanta Center
Tue 10:19:22 AM 32.7592 -86.0519 322° Northwest 316 364 20,000 -150 Level Atlanta Center
Tue 10:20:22 AM 32.8314 -86.1106 326° Northwest 316 364 19,700 -800 Descending Atlanta Center
Tue 10:20:52 AM 32.8600 -86.1483 312° West 296 341 18,800 -1,900 Descending Atlanta Center
Tue 10:21:22 AM 32.8950 -86.1689 334° Northwest 304 350 17,800 -1,967 Descending Atlanta Center
Tue 10:21:53 AM 32.9258 -86.2042 316° Northwest 288 331 16,800 -1,900 Descending Atlanta Center
Tue 10:22:22 AM 32.9631 -86.2250 335° Northwest 299 344 15,900 -1,800 Descending Atlanta Center
Tue 10:22:53 AM 32.9914 -86.2603 314° West 287 330 15,000 -1,500 Descending Atlanta Center
Tue 10:23:22 AM 33.0244 -86.2836 329° Northwest 294 338 14,400 -1,082 Descending Atlanta Center
Tue 10:23:54 AM 33.0425 -86.3286 296° West 285 328 13,900 -1,000 Descending Atlanta Center
Tue 10:24:22 AM 33.0669 -86.3614 312° West 283 326 13,400 -984 Descending Atlanta Center
Tue 10:24:55 AM 33.0869 -86.4092 297° West 287 330 12,900 -900 Descending Atlanta Center
Tue 10:25:22 AM 33.1092 -86.4419 309° West 283 326 12,500 -1,000 Descending Atlanta Center
Tue 10:25:55 AM 33.1311 -86.4872 300° West 289 333 11,900 -1,000 Descending Atlanta Center
Tue 10:26:22 AM 33.1536 -86.5225 307° West 288 331 11,500 -1,082 Descending Atlanta Center
Tue 10:26:56 AM 33.1797 -86.5703 303° West 285 328 10,800 -1,300 Descending Atlanta Center
Tue 10:27:22 AM 33.1958 -86.5981 305° West 288 331 10,200 -1,100 Descending Atlanta Center
Tue 10:27:56 AM 33.2178 -86.6486 297° West 270 311 9,700 -1,000 Descending Atlanta Center
Tue 10:28:22 AM 33.2361 -86.6714 314° West 281 323 9,200 -1,377 Descending Atlanta Center
Tue 10:28:57 AM 33.2558 -86.7167 298° West 243 280 8,300 -1,500 Descending Atlanta Center
Tue 10:29:22 AM 33.2719 -86.7394 310° West 259 298 7,700 -1,475 Descending Atlanta Center
Tue 10:29:58 AM 33.2939 -86.7850 300° West 244 281 6,800 -1,500 Descending Atlanta Center
Tue 10:30:58 AM 33.3342 -86.8558 304° West 249 287 5,300 -1,587 Descending Atlanta Center
Tue 10:31:59 AM 33.3986 -86.8656 353° North 243 280 3,600 -1,180 Descending Atlanta Center
Tue 10:33:00 AM 33.4608 -86.8800 349° North 214 246 2,900 -595 Descending Atlanta Center
Tue 10:34:00 AM 33.5031 -86.8639 18° North 168 193 2,400 -595 Descending Atlanta Center
Tue 10:35:01 AM 33.5228 -86.8247 59° Northeast 130 150 1,700 -744 Descending Atlanta Center
Tue 10:36:01 AM 33.5467 -86.7856 54° Northeast 129 148 900 -800 Descending Atlanta Center
Tue 10:38:00 AM 33.5500 -86.7500 44° Northeast  Level FlightAware Approximate

Login

Don't have an account? Register now (free) for customized features, flight alerts, and more!